sensor_id;sensor_type;location;lat;lon;timestamp;P1;durP1;ratioP1;P2;durP2;ratioP2
7479;SDS011;3781;42.272;22.658;2023-02-14T00:00:29;0.30;;;0.30;;
7479;SDS011;3781;42.272;22.658;2023-02-14T00:02:55;0.33;;;0.20;;
7479;SDS011;3781;42.272;22.658;2023-02-14T00:05:23;0.50;;;0.50;;
7479;SDS011;3781;42.272;22.658;2023-02-14T00:07:50;0.10;;;0.10;;
7479;SDS011;3781;42.272;22.658;2023-02-14T00:10:17;0.30;;;0.30;;
7479;SDS011;3781;42.272;22.658;2023-02-14T00:12:44;2.17;;;1.00;;
7479;SDS011;3781;42.272;22.658;2023-02-14T00:15:10;1.20;;;0.47;;
7479;SDS011;3781;42.272;22.658;2023-02-14T00:17:49;0.03;;;0.03;;
7479;SDS011;3781;42.272;22.658;2023-02-14T00:20:18;0.43;;;0.43;;
7479;SDS011;3781;42.272;22.658;2023-02-14T00:22:47;0.33;;;0.33;;
7479;SDS011;3781;42.272;22.658;2023-02-14T00:25:14;0.93;;;0.93;;
7479;SDS011;3781;42.272;22.658;2023-02-14T00:27:41;2.00;;;1.33;;
7479;SDS011;3781;42.272;22.658;2023-02-14T00:30:09;0.93;;;0.93;;
7479;SDS011;3781;42.272;22.658;2023-02-14T00:32:36;1.23;;;0.90;;
7479;SDS011;3781;42.272;22.658;2023-02-14T00:35:04;0.40;;;0.40;;
7479;SDS011;3781;42.272;22.658;2023-02-14T00:37:31;0.37;;;0.37;;
7479;SDS011;3781;42.272;22.658;2023-02-14T00:39:59;3.40;;;0.47;;
7479;SDS011;3781;42.272;22.658;2023-02-14T00:42:26;1.80;;;0.80;;
7479;SDS011;3781;42.272;22.658;2023-02-14T00:44:53;0.00;;;0.00;;
7479;SDS011;3781;42.272;22.658;2023-02-14T00:47:19;1.20;;;0.53;;
7479;SDS011;3781;42.272;22.658;2023-02-14T00:49:46;0.40;;;0.40;;
7479;SDS011;3781;42.272;22.658;2023-02-14T00:52:13;0.03;;;0.03;;
7479;SDS011;3781;42.272;22.658;2023-02-14T00:54:40;0.53;;;0.47;;
7479;SDS011;3781;42.272;22.658;2023-02-14T00:57:09;0.43;;;0.43;;
7479;SDS011;3781;42.272;22.658;2023-02-14T00:59:35;3.97;;;1.20;;
7479;SDS011;3781;42.272;22.658;2023-02-14T01:02:02;0.30;;;0.30;;
7479;SDS011;3781;42.272;22.658;2023-02-14T01:04:29;0.87;;;0.73;;
7479;SDS011;3781;42.272;22.658;2023-02-14T01:06:56;0.90;;;0.90;;
7479;SDS011;3781;42.272;22.658;2023-02-14T01:09:23;7.83;;;1.20;;
7479;SDS011;3781;42.272;22.658;2023-02-14T01:11:49;0.37;;;0.37;;
7479;SDS011;3781;42.272;22.658;2023-02-14T01:14:17;0.20;;;0.20;;
7479;SDS011;3781;42.272;22.658;2023-02-14T01:16:44;1.63;;;1.10;;
7479;SDS011;3781;42.272;22.658;2023-02-14T01:19:11;2.37;;;2.17;;
7479;SDS011;3781;42.272;22.658;2023-02-14T01:21:38;1.53;;;1.47;;
7479;SDS011;3781;42.272;22.658;2023-02-14T01:24:05;1.67;;;1.57;;
7479;SDS011;3781;42.272;22.658;2023-02-14T01:26:33;2.93;;;1.50;;
7479;SDS011;3781;42.272;22.658;2023-02-14T01:29:00;0.80;;;0.80;;
7479;SDS011;3781;42.272;22.658;2023-02-14T01:31:29;5.17;;;2.37;;
7479;SDS011;3781;42.272;22.658;2023-02-14T01:33:57;0.83;;;0.83;;
7479;SDS011;3781;42.272;22.658;2023-02-14T01:36:25;1.67;;;1.57;;
7479;SDS011;3781;42.272;22.658;2023-02-14T01:38:53;0.80;;;0.73;;
7479;SDS011;3781;42.272;22.658;2023-02-14T01:41:21;2.30;;;2.20;;
7479;SDS011;3781;42.272;22.658;2023-02-14T01:43:51;8.93;;;1.43;;
7479;SDS011;3781;42.272;22.658;2023-02-14T01:46:22;1.33;;;0.90;;
7479;SDS011;3781;42.272;22.658;2023-02-14T01:48:52;0.23;;;0.20;;
7479;SDS011;3781;42.272;22.658;2023-02-14T01:51:20;0.33;;;0.33;;
7479;SDS011;3781;42.272;22.658;2023-02-14T01:53:48;1.60;;;0.60;;
7479;SDS011;3781;42.272;22.658;2023-02-14T01:56:18;0.00;;;0.00;;
7479;SDS011;3781;42.272;22.658;2023-02-14T01:58:49;0.83;;;0.83;;
7479;SDS011;3781;42.272;22.658;2023-02-14T02:01:19;1.00;;;0.73;;
7479;SDS011;3781;42.272;22.658;2023-02-14T02:03:46;2.83;;;0.37;;
7479;SDS011;3781;42.272;22.658;2023-02-14T02:06:18;0.27;;;0.27;;
7479;SDS011;3781;42.272;22.658;2023-02-14T02:08:51;0.30;;;0.30;;
7479;SDS011;3781;42.272;22.658;2023-02-14T02:11:27;10.00;;;1.10;;
7479;SDS011;3781;42.272;22.658;2023-02-14T02:13:54;3.73;;;2.17;;
7479;SDS011;3781;42.272;22.658;2023-02-14T02:16:25;0.80;;;0.80;;
7479;SDS011;3781;42.272;22.658;2023-02-14T02:19:13;5.73;;;2.40;;
7479;SDS011;3781;42.272;22.658;2023-02-14T02:22:11;3.27;;;2.87;;
7479;SDS011;3781;42.272;22.658;2023-02-14T02:24:59;13.43;;;3.00;;
7479;SDS011;3781;42.272;22.658;2023-02-14T02:27:41;1.70;;;1.60;;
7479;SDS011;3781;42.272;22.658;2023-02-14T02:33:48;0.93;;;0.93;;
7479;SDS011;3781;42.272;22.658;2023-02-14T02:36:48;0.50;;;0.50;;
7479;SDS011;3781;42.272;22.658;2023-02-14T02:39:29;2.57;;;2.40;;
7479;SDS011;3781;42.272;22.658;2023-02-14T02:42:08;1.67;;;1.57;;
7479;SDS011;3781;42.272;22.658;2023-02-14T02:44:47;0.53;;;0.37;;
7479;SDS011;3781;42.272;22.658;2023-02-14T02:47:23;2.07;;;1.80;;
7479;SDS011;3781;42.272;22.658;2023-02-14T02:49:57;2.57;;;2.13;;
7479;SDS011;3781;42.272;22.658;2023-02-14T02:52:48;1.33;;;1.13;;
7479;SDS011;3781;42.272;22.658;2023-02-14T02:55:32;0.50;;;0.50;;
7479;SDS011;3781;42.272;22.658;2023-02-14T02:58:23;1.80;;;1.70;;
7479;SDS011;3781;42.272;22.658;2023-02-14T03:00:55;0.33;;;0.33;;
7479;SDS011;3781;42.272;22.658;2023-02-14T03:03:23;1.27;;;1.17;;
7479;SDS011;3781;42.272;22.658;2023-02-14T03:06:09;1.50;;;1.40;;
7479;SDS011;3781;42.272;22.658;2023-02-14T03:08:37;1.07;;;1.07;;
7479;SDS011;3781;42.272;22.658;2023-02-14T03:11:04;5.40;;;1.80;;
7479;SDS011;3781;42.272;22.658;2023-02-14T03:13:42;3.53;;;1.27;;
7479;SDS011;3781;42.272;22.658;2023-02-14T03:16:23;1.10;;;1.10;;
7479;SDS011;3781;42.272;22.658;2023-02-14T03:21:59;0.97;;;0.27;;
7479;SDS011;3781;42.272;22.658;2023-02-14T03:24:37;0.47;;;0.47;;
7479;SDS011;3781;42.272;22.658;2023-02-14T03:27:14;0.10;;;0.10;;
7479;SDS011;3781;42.272;22.658;2023-02-14T03:29:49;1.50;;;0.93;;
7479;SDS011;3781;42.272;22.658;2023-02-14T03:32:24;0.93;;;0.83;;
7479;SDS011;3781;42.272;22.658;2023-02-14T03:34:56;2.73;;;1.13;;
7479;SDS011;3781;42.272;22.658;2023-02-14T03:37:30;0.50;;;0.50;;
7479;SDS011;3781;42.272;22.658;2023-02-14T03:40:04;1.47;;;1.37;;
7479;SDS011;3781;42.272;22.658;2023-02-14T03:42:35;10.47;;;0.90;;
7479;SDS011;3781;42.272;22.658;2023-02-14T03:45:07;0.10;;;0.10;;
7479;SDS011;3781;42.272;22.658;2023-02-14T03:47:38;1.37;;;0.63;;
7479;SDS011;3781;42.272;22.658;2023-02-14T03:50:10;0.20;;;0.20;;
7479;SDS011;3781;42.272;22.658;2023-02-14T03:52:40;1.23;;;1.23;;
7479;SDS011;3781;42.272;22.658;2023-02-14T03:55:09;0.53;;;0.53;;
7479;SDS011;3781;42.272;22.658;2023-02-14T03:57:41;0.47;;;0.47;;
7479;SDS011;3781;42.272;22.658;2023-02-14T04:00:15;0.00;;;0.00;;
7479;SDS011;3781;42.272;22.658;2023-02-14T04:02:43;0.53;;;0.53;;
7479;SDS011;3781;42.272;22.658;2023-02-14T04:05:14;0.23;;;0.23;;
7479;SDS011;3781;42.272;22.658;2023-02-14T04:07:43;0.30;;;0.30;;
7479;SDS011;3781;42.272;22.658;2023-02-14T04:12:42;0.20;;;0.20;;
7479;SDS011;3781;42.272;22.658;2023-02-14T04:15:09;0.57;;;0.40;;
7479;SDS011;3781;42.272;22.658;2023-02-14T04:17:37;1.40;;;0.50;;
7479;SDS011;3781;42.272;22.658;2023-02-14T04:20:22;10.33;;;2.63;;
7479;SDS011;3781;42.272;22.658;2023-02-14T04:22:49;1.50;;;0.87;;
7479;SDS011;3781;42.272;22.658;2023-02-14T04:25:18;0.57;;;0.57;;
7479;SDS011;3781;42.272;22.658;2023-02-14T04:27:46;2.17;;;1.00;;
7479;SDS011;3781;42.272;22.658;2023-02-14T04:30:13;1.17;;;0.53;;
7479;SDS011;3781;42.272;22.658;2023-02-14T04:32:42;0.60;;;0.60;;
7479;SDS011;3781;42.272;22.658;2023-02-14T04:35:09;1.80;;;1.67;;
7479;SDS011;3781;42.272;22.658;2023-02-14T04:37:36;1.40;;;1.10;;
7479;SDS011;3781;42.272;22.658;2023-02-14T04:40:04;2.23;;;1.93;;
7479;SDS011;3781;42.272;22.658;2023-02-14T04:42:33;0.70;;;0.70;;
7479;SDS011;3781;42.272;22.658;2023-02-14T04:44:59;1.40;;;0.93;;
7479;SDS011;3781;42.272;22.658;2023-02-14T04:47:26;4.90;;;0.77;;
7479;SDS011;3781;42.272;22.658;2023-02-14T04:49:55;0.80;;;0.80;;
7479;SDS011;3781;42.272;22.658;2023-02-14T04:52:25;1.90;;;1.67;;
7479;SDS011;3781;42.272;22.658;2023-02-14T04:54:54;0.70;;;0.53;;
7479;SDS011;3781;42.272;22.658;2023-02-14T04:57:20;0.50;;;0.40;;
7479;SDS011;3781;42.272;22.658;2023-02-14T04:59:49;1.73;;;1.63;;
7479;SDS011;3781;42.272;22.658;2023-02-14T05:02:16;5.53;;;5.10;;
7479;SDS011;3781;42.272;22.658;2023-02-14T05:04:43;1.43;;;1.37;;
7479;SDS011;3781;42.272;22.658;2023-02-14T05:07:10;0.00;;;0.00;;
7479;SDS011;3781;42.272;22.658;2023-02-14T05:09:36;0.00;;;0.00;;
7479;SDS011;3781;42.272;22.658;2023-02-14T05:12:03;1.50;;;1.40;;
7479;SDS011;3781;42.272;22.658;2023-02-14T05:14:30;0.67;;;0.67;;
7479;SDS011;3781;42.272;22.658;2023-02-14T05:16:58;0.50;;;0.50;;
7479;SDS011;3781;42.272;22.658;2023-02-14T05:19:25;11.67;;;3.10;;
7479;SDS011;3781;42.272;22.658;2023-02-14T05:21:52;0.87;;;0.87;;
7479;SDS011;3781;42.272;22.658;2023-02-14T05:24:19;0.20;;;0.20;;
7479;SDS011;3781;42.272;22.658;2023-02-14T05:26:46;3.57;;;0.63;;
7479;SDS011;3781;42.272;22.658;2023-02-14T05:29:13;1.40;;;1.40;;
7479;SDS011;3781;42.272;22.658;2023-02-14T05:31:40;2.20;;;1.13;;
7479;SDS011;3781;42.272;22.658;2023-02-14T05:34:08;1.93;;;1.70;;
7479;SDS011;3781;42.272;22.658;2023-02-14T05:36:35;0.93;;;0.93;;
7479;SDS011;3781;42.272;22.658;2023-02-14T05:39:02;3.13;;;1.77;;
7479;SDS011;3781;42.272;22.658;2023-02-14T05:41:29;0.53;;;0.53;;
7479;SDS011;3781;42.272;22.658;2023-02-14T05:43:56;1.27;;;1.10;;
7479;SDS011;3781;42.272;22.658;2023-02-14T05:46:23;1.30;;;1.27;;
7479;SDS011;3781;42.272;22.658;2023-02-14T05:48:50;2.87;;;2.67;;
7479;SDS011;3781;42.272;22.658;2023-02-14T05:51:18;0.87;;;0.87;;
7479;SDS011;3781;42.272;22.658;2023-02-14T05:53:45;0.77;;;0.77;;
7479;SDS011;3781;42.272;22.658;2023-02-14T05:56:11;1.17;;;1.17;;
7479;SDS011;3781;42.272;22.658;2023-02-14T05:58:38;0.70;;;0.23;;
7479;SDS011;3781;42.272;22.658;2023-02-14T06:01:05;2.70;;;2.50;;
7479;SDS011;3781;42.272;22.658;2023-02-14T06:03:31;0.83;;;0.83;;
7479;SDS011;3781;42.272;22.658;2023-02-14T06:05:58;6.63;;;2.97;;
7479;SDS011;3781;42.272;22.658;2023-02-14T06:08:26;8.87;;;1.37;;
7479;SDS011;3781;42.272;22.658;2023-02-14T06:10:53;2.07;;;1.97;;
7479;SDS011;3781;42.272;22.658;2023-02-14T06:13:20;2.87;;;2.47;;
7479;SDS011;3781;42.272;22.658;2023-02-14T06:15:48;1.93;;;1.83;;
7479;SDS011;3781;42.272;22.658;2023-02-14T06:18:15;3.33;;;3.10;;
7479;SDS011;3781;42.272;22.658;2023-02-14T06:20:42;13.57;;;3.57;;
7479;SDS011;3781;42.272;22.658;2023-02-14T06:23:09;3.73;;;2.87;;
7479;SDS011;3781;42.272;22.658;2023-02-14T06:25:37;5.73;;;2.80;;
7479;SDS011;3781;42.272;22.658;2023-02-14T06:28:04;9.40;;;3.83;;
7479;SDS011;3781;42.272;22.658;2023-02-14T06:30:30;3.00;;;2.77;;
7479;SDS011;3781;42.272;22.658;2023-02-14T06:32:57;2.77;;;2.53;;
7479;SDS011;3781;42.272;22.658;2023-02-14T06:35:24;5.47;;;3.03;;
7479;SDS011;3781;42.272;22.658;2023-02-14T06:37:51;7.23;;;2.37;;
7479;SDS011;3781;42.272;22.658;2023-02-14T06:40:17;7.60;;;4.67;;
7479;SDS011;3781;42.272;22.658;2023-02-14T06:42:46;3.93;;;2.67;;
7479;SDS011;3781;42.272;22.658;2023-02-14T06:45:12;3.47;;;2.47;;
7479;SDS011;3781;42.272;22.658;2023-02-14T06:47:39;4.20;;;3.20;;
7479;SDS011;3781;42.272;22.658;2023-02-14T06:50:06;13.70;;;4.73;;
7479;SDS011;3781;42.272;22.658;2023-02-14T06:52:35;3.27;;;2.07;;
7479;SDS011;3781;42.272;22.658;2023-02-14T06:55:02;7.07;;;4.63;;
7479;SDS011;3781;42.272;22.658;2023-02-14T06:57:29;9.30;;;3.63;;
7479;SDS011;3781;42.272;22.658;2023-02-14T06:59:57;10.57;;;4.83;;
7479;SDS011;3781;42.272;22.658;2023-02-14T07:02:24;11.87;;;3.57;;
7479;SDS011;3781;42.272;22.658;2023-02-14T07:04:51;6.67;;;2.43;;
7479;SDS011;3781;42.272;22.658;2023-02-14T07:07:17;5.07;;;2.60;;
7479;SDS011;3781;42.272;22.658;2023-02-14T07:09:44;5.40;;;3.97;;
7479;SDS011;3781;42.272;22.658;2023-02-14T07:12:11;4.43;;;3.00;;
7479;SDS011;3781;42.272;22.658;2023-02-14T07:14:38;7.53;;;3.87;;
7479;SDS011;3781;42.272;22.658;2023-02-14T07:17:06;8.87;;;5.57;;
7479;SDS011;3781;42.272;22.658;2023-02-14T07:19:33;13.37;;;6.30;;
7479;SDS011;3781;42.272;22.658;2023-02-14T07:22:00;13.40;;;7.30;;
7479;SDS011;3781;42.272;22.658;2023-02-14T07:24:27;4.63;;;4.20;;
7479;SDS011;3781;42.272;22.658;2023-02-14T07:26:54;17.10;;;6.67;;
7479;SDS011;3781;42.272;22.658;2023-02-14T07:29:20;15.07;;;6.53;;
7479;SDS011;3781;42.272;22.658;2023-02-14T07:31:47;13.53;;;8.60;;
7479;SDS011;3781;42.272;22.658;2023-02-14T07:34:15;8.87;;;7.30;;
7479;SDS011;3781;42.272;22.658;2023-02-14T07:36:42;16.23;;;7.27;;
7479;SDS011;3781;42.272;22.658;2023-02-14T07:39:09;9.70;;;7.47;;
7479;SDS011;3781;42.272;22.658;2023-02-14T07:41:36;21.73;;;6.93;;
7479;SDS011;3781;42.272;22.658;2023-02-14T07:44:03;7.80;;;6.40;;
7479;SDS011;3781;42.272;22.658;2023-02-14T07:46:30;13.93;;;6.73;;
7479;SDS011;3781;42.272;22.658;2023-02-14T08:06:09;44.30;;;15.83;;
7479;SDS011;3781;42.272;22.658;2023-02-14T08:08:36;34.13;;;13.97;;
7479;SDS011;3781;42.272;22.658;2023-02-14T08:11:03;14.97;;;9.37;;
7479;SDS011;3781;42.272;22.658;2023-02-14T08:13:29;19.20;;;9.53;;
7479;SDS011;3781;42.272;22.658;2023-02-14T08:15:56;14.80;;;8.20;;
7479;SDS011;3781;42.272;22.658;2023-02-14T08:18:34;14.17;;;6.13;;
7479;SDS011;3781;42.272;22.658;2023-02-14T08:21:03;16.73;;;6.50;;
7479;SDS011;3781;42.272;22.658;2023-02-14T08:23:32;7.90;;;5.90;;
7479;SDS011;3781;42.272;22.658;2023-02-14T08:25:59;9.17;;;5.17;;
7479;SDS011;3781;42.272;22.658;2023-02-14T08:28:26;8.37;;;5.37;;
7479;SDS011;3781;42.272;22.658;2023-02-14T08:30:54;5.57;;;4.17;;
7479;SDS011;3781;42.272;22.658;2023-02-14T08:33:21;10.73;;;6.67;;
7479;SDS011;3781;42.272;22.658;2023-02-14T08:35:49;4.77;;;4.37;;
7479;SDS011;3781;42.272;22.658;2023-02-14T08:38:16;5.27;;;4.73;;
7479;SDS011;3781;42.272;22.658;2023-02-14T08:40:44;8.07;;;4.73;;
7479;SDS011;3781;42.272;22.658;2023-02-14T08:43:11;4.70;;;3.87;;
7479;SDS011;3781;42.272;22.658;2023-02-14T08:45:38;6.50;;;2.97;;
7479;SDS011;3781;42.272;22.658;2023-02-14T08:48:05;5.10;;;4.00;;
7479;SDS011;3781;42.272;22.658;2023-02-14T08:50:34;16.70;;;7.10;;
7479;SDS011;3781;42.272;22.658;2023-02-14T08:53:05;10.27;;;5.33;;
7479;SDS011;3781;42.272;22.658;2023-02-14T08:55:32;6.47;;;3.80;;
7479;SDS011;3781;42.272;22.658;2023-02-14T08:58:01;6.27;;;3.47;;
7479;SDS011;3781;42.272;22.658;2023-02-14T09:00:28;16.77;;;5.13;;
7479;SDS011;3781;42.272;22.658;2023-02-14T09:02:55;10.90;;;5.37;;
7479;SDS011;3781;42.272;22.658;2023-02-14T09:05:21;18.63;;;5.07;;
7479;SDS011;3781;42.272;22.658;2023-02-14T09:07:48;4.53;;;3.83;;
7479;SDS011;3781;42.272;22.658;2023-02-14T09:10:15;4.03;;;3.27;;
7479;SDS011;3781;42.272;22.658;2023-02-14T09:12:43;5.70;;;4.77;;
7479;SDS011;3781;42.272;22.658;2023-02-14T09:15:12;6.47;;;2.60;;
7479;SDS011;3781;42.272;22.658;2023-02-14T09:17:38;8.53;;;3.37;;
7479;SDS011;3781;42.272;22.658;2023-02-14T09:20:06;4.27;;;3.50;;
7479;SDS011;3781;42.272;22.658;2023-02-14T09:22:33;8.97;;;3.93;;
7479;SDS011;3781;42.272;22.658;2023-02-14T09:25:00;9.27;;;3.70;;
7479;SDS011;3781;42.272;22.658;2023-02-14T09:27:27;7.97;;;5.70;;
7479;SDS011;3781;42.272;22.658;2023-02-14T09:29:54;8.03;;;4.83;;
7479;SDS011;3781;42.272;22.658;2023-02-14T09:32:22;6.10;;;3.63;;
7479;SDS011;3781;42.272;22.658;2023-02-14T09:34:50;6.03;;;3.93;;
7479;SDS011;3781;42.272;22.658;2023-02-14T09:37:34;16.97;;;5.53;;
7479;SDS011;3781;42.272;22.658;2023-02-14T09:40:01;11.73;;;3.40;;
7479;SDS011;3781;42.272;22.658;2023-02-14T09:45:29;4.53;;;3.43;;
7479;SDS011;3781;42.272;22.658;2023-02-14T09:47:59;5.07;;;4.53;;
7479;SDS011;3781;42.272;22.658;2023-02-14T09:50:32;6.30;;;3.93;;
7479;SDS011;3781;42.272;22.658;2023-02-14T09:53:05;10.93;;;3.37;;
7479;SDS011;3781;42.272;22.658;2023-02-14T09:55:39;15.17;;;4.53;;
7479;SDS011;3781;42.272;22.658;2023-02-14T09:58:12;7.93;;;4.23;;
7479;SDS011;3781;42.272;22.658;2023-02-14T10:00:44;12.33;;;5.53;;
7479;SDS011;3781;42.272;22.658;2023-02-14T10:06:18;6.30;;;3.53;;
7479;SDS011;3781;42.272;22.658;2023-02-14T10:09:02;8.00;;;5.43;;
7479;SDS011;3781;42.272;22.658;2023-02-14T10:11:33;6.73;;;3.03;;
7479;SDS011;3781;42.272;22.658;2023-02-14T10:14:02;8.20;;;4.30;;
7479;SDS011;3781;42.272;22.658;2023-02-14T10:16:35;14.77;;;5.10;;
7479;SDS011;3781;42.272;22.658;2023-02-14T10:19:06;8.50;;;4.13;;
7479;SDS011;3781;42.272;22.658;2023-02-14T10:21:46;27.57;;;7.73;;
7479;SDS011;3781;42.272;22.658;2023-02-14T10:24:17;11.20;;;7.47;;
7479;SDS011;3781;42.272;22.658;2023-02-14T10:26:48;26.27;;;6.87;;
7479;SDS011;3781;42.272;22.658;2023-02-14T10:29:18;8.57;;;4.43;;
7479;SDS011;3781;42.272;22.658;2023-02-14T10:31:45;8.03;;;4.07;;
7479;SDS011;3781;42.272;22.658;2023-02-14T10:34:21;5.13;;;3.63;;
7479;SDS011;3781;42.272;22.658;2023-02-14T10:37:02;9.23;;;5.67;;
7479;SDS011;3781;42.272;22.658;2023-02-14T10:39:46;8.83;;;3.73;;
7479;SDS011;3781;42.272;22.658;2023-02-14T10:42:29;5.20;;;4.67;;
7479;SDS011;3781;42.272;22.658;2023-02-14T10:45:10;10.00;;;4.47;;
7479;SDS011;3781;42.272;22.658;2023-02-14T10:47:48;2.70;;;2.50;;
7479;SDS011;3781;42.272;22.658;2023-02-14T10:50:20;11.43;;;5.97;;
7479;SDS011;3781;42.272;22.658;2023-02-14T10:52:55;10.70;;;4.50;;
7479;SDS011;3781;42.272;22.658;2023-02-14T10:55:36;4.63;;;3.33;;
7479;SDS011;3781;42.272;22.658;2023-02-14T10:58:08;3.33;;;2.57;;
7479;SDS011;3781;42.272;22.658;2023-02-14T11:00:45;14.30;;;3.33;;
7479;SDS011;3781;42.272;22.658;2023-02-14T11:03:21;3.07;;;2.83;;
7479;SDS011;3781;42.272;22.658;2023-02-14T11:05:49;4.93;;;3.07;;
7479;SDS011;3781;42.272;22.658;2023-02-14T11:08:21;8.40;;;1.40;;
7479;SDS011;3781;42.272;22.658;2023-02-14T11:10:51;6.50;;;2.57;;
7479;SDS011;3781;42.272;22.658;2023-02-14T11:13:25;10.27;;;2.27;;
7479;SDS011;3781;42.272;22.658;2023-02-14T11:15:57;6.90;;;3.20;;
7479;SDS011;3781;42.272;22.658;2023-02-14T11:18:26;3.70;;;3.30;;
7479;SDS011;3781;42.272;22.658;2023-02-14T11:21:07;3.47;;;2.73;;
7479;SDS011;3781;42.272;22.658;2023-02-14T11:23:37;1.53;;;1.43;;
7479;SDS011;3781;42.272;22.658;2023-02-14T11:26:10;1.60;;;1.50;;
7479;SDS011;3781;42.272;22.658;2023-02-14T11:28:47;0.50;;;0.50;;
7479;SDS011;3781;42.272;22.658;2023-02-14T11:31:27;0.10;;;0.10;;
7479;SDS011;3781;42.272;22.658;2023-02-14T11:33:57;0.87;;;0.87;;
7479;SDS011;3781;42.272;22.658;2023-02-14T11:36:25;1.07;;;1.07;;
7479;SDS011;3781;42.272;22.658;2023-02-14T11:39:00;1.37;;;0.73;;
7479;SDS011;3781;42.272;22.658;2023-02-14T11:41:44;0.50;;;0.50;;
7479;SDS011;3781;42.272;22.658;2023-02-14T11:44:16;0.97;;;0.90;;
7479;SDS011;3781;42.272;22.658;2023-02-14T11:46:46;1.37;;;1.27;;
7479;SDS011;3781;42.272;22.658;2023-02-14T11:49:22;1.47;;;0.77;;
7479;SDS011;3781;42.272;22.658;2023-02-14T11:51:56;0.90;;;0.87;;
7479;SDS011;3781;42.272;22.658;2023-02-14T11:54:31;1.33;;;0.90;;
7479;SDS011;3781;42.272;22.658;2023-02-14T11:57:01;1.13;;;1.13;;
7479;SDS011;3781;42.272;22.658;2023-02-14T11:59:32;1.33;;;1.23;;
7479;SDS011;3781;42.272;22.658;2023-02-14T12:02:03;3.03;;;1.60;;
7479;SDS011;3781;42.272;22.658;2023-02-14T12:04:43;3.87;;;1.50;;
7479;SDS011;3781;42.272;22.658;2023-02-14T12:07:17;4.43;;;1.87;;
7479;SDS011;3781;42.272;22.658;2023-02-14T12:10:03;7.30;;;2.20;;
7479;SDS011;3781;42.272;22.658;2023-02-14T12:12:49;2.27;;;1.57;;
7479;SDS011;3781;42.272;22.658;2023-02-14T12:21:16;1.57;;;1.47;;
7479;SDS011;3781;42.272;22.658;2023-02-14T12:23:51;2.00;;;1.80;;
7479;SDS011;3781;42.272;22.658;2023-02-14T12:26:28;2.00;;;1.17;;
7479;SDS011;3781;42.272;22.658;2023-02-14T12:29:01;1.70;;;1.60;;
7479;SDS011;3781;42.272;22.658;2023-02-14T12:31:34;1.07;;;0.77;;
7479;SDS011;3781;42.272;22.658;2023-02-14T12:34:01;1.10;;;1.00;;
7479;SDS011;3781;42.272;22.658;2023-02-14T12:36:33;1.50;;;1.30;;
7479;SDS011;3781;42.272;22.658;2023-02-14T12:39:11;1.73;;;0.83;;
7479;SDS011;3781;42.272;22.658;2023-02-14T12:41:48;0.73;;;0.73;;
7479;SDS011;3781;42.272;22.658;2023-02-14T12:44:27;1.23;;;0.90;;
7479;SDS011;3781;42.272;22.658;2023-02-14T12:47:08;1.83;;;1.57;;
7479;SDS011;3781;42.272;22.658;2023-02-14T12:55:35;0.43;;;0.43;;
7479;SDS011;3781;42.272;22.658;2023-02-14T12:58:16;0.60;;;0.60;;
7479;SDS011;3781;42.272;22.658;2023-02-14T13:00:54;0.53;;;0.53;;
7479;SDS011;3781;42.272;22.658;2023-02-14T13:03:36;1.10;;;0.87;;
7479;SDS011;3781;42.272;22.658;2023-02-14T13:06:13;0.70;;;0.70;;
7479;SDS011;3781;42.272;22.658;2023-02-14T13:08:50;1.47;;;0.93;;
7479;SDS011;3781;42.272;22.658;2023-02-14T13:11:33;0.33;;;0.30;;
7479;SDS011;3781;42.272;22.658;2023-02-14T13:14:09;1.33;;;0.80;;
7479;SDS011;3781;42.272;22.658;2023-02-14T13:16:45;0.70;;;0.53;;
7479;SDS011;3781;42.272;22.658;2023-02-14T13:19:19;3.80;;;1.47;;
7479;SDS011;3781;42.272;22.658;2023-02-14T13:21:56;1.00;;;1.00;;
7479;SDS011;3781;42.272;22.658;2023-02-14T13:24:24;2.23;;;1.60;;
7479;SDS011;3781;42.272;22.658;2023-02-14T13:26:55;1.50;;;0.90;;
7479;SDS011;3781;42.272;22.658;2023-02-14T13:29:26;1.70;;;1.70;;
7479;SDS011;3781;42.272;22.658;2023-02-14T13:32:02;0.77;;;0.47;;
7479;SDS011;3781;42.272;22.658;2023-02-14T13:34:30;1.73;;;1.33;;
7479;SDS011;3781;42.272;22.658;2023-02-14T13:37:01;1.17;;;1.07;;
7479;SDS011;3781;42.272;22.658;2023-02-14T13:39:31;1.30;;;0.53;;
7479;SDS011;3781;42.272;22.658;2023-02-14T13:42:01;1.07;;;0.47;;
7479;SDS011;3781;42.272;22.658;2023-02-14T13:44:42;7.53;;;1.80;;
7479;SDS011;3781;42.272;22.658;2023-02-14T13:47:15;0.60;;;0.43;;
7479;SDS011;3781;42.272;22.658;2023-02-14T13:49:47;0.97;;;0.37;;
7479;SDS011;3781;42.272;22.658;2023-02-14T13:55:08;1.77;;;1.27;;
7479;SDS011;3781;42.272;22.658;2023-02-14T13:57:42;3.07;;;1.57;;
7479;SDS011;3781;42.272;22.658;2023-02-14T14:00:21;1.10;;;0.70;;
7479;SDS011;3781;42.272;22.658;2023-02-14T14:03:01;2.77;;;1.53;;
7479;SDS011;3781;42.272;22.658;2023-02-14T14:05:48;2.13;;;1.97;;
7479;SDS011;3781;42.272;22.658;2023-02-14T14:08:34;0.77;;;0.50;;
7479;SDS011;3781;42.272;22.658;2023-02-14T14:11:47;0.20;;;0.20;;
7479;SDS011;3781;42.272;22.658;2023-02-14T14:14:36;2.20;;;0.90;;
7479;SDS011;3781;42.272;22.658;2023-02-14T14:17:16;1.13;;;0.70;;
7479;SDS011;3781;42.272;22.658;2023-02-14T14:19:45;1.97;;;0.87;;
7479;SDS011;3781;42.272;22.658;2023-02-14T14:22:13;1.57;;;0.83;;
7479;SDS011;3781;42.272;22.658;2023-02-14T14:24:46;8.27;;;1.63;;
7479;SDS011;3781;42.272;22.658;2023-02-14T14:27:21;1.83;;;0.47;;
7479;SDS011;3781;42.272;22.658;2023-02-14T14:29:52;2.13;;;1.20;;
7479;SDS011;3781;42.272;22.658;2023-02-14T14:32:23;1.60;;;1.43;;
7479;SDS011;3781;42.272;22.658;2023-02-14T14:34:52;2.07;;;1.97;;
7479;SDS011;3781;42.272;22.658;2023-02-14T14:37:22;1.43;;;1.43;;
7479;SDS011;3781;42.272;22.658;2023-02-14T14:39:51;1.30;;;0.77;;
7479;SDS011;3781;42.272;22.658;2023-02-14T14:42:20;4.27;;;2.23;;
7479;SDS011;3781;42.272;22.658;2023-02-14T14:44:48;0.50;;;0.50;;
7479;SDS011;3781;42.272;22.658;2023-02-14T14:47:21;4.10;;;0.87;;
7479;SDS011;3781;42.272;22.658;2023-02-14T14:49:51;0.87;;;0.87;;
7479;SDS011;3781;42.272;22.658;2023-02-14T14:52:25;3.87;;;0.90;;
7479;SDS011;3781;42.272;22.658;2023-02-14T14:54:55;4.60;;;2.67;;
7479;SDS011;3781;42.272;22.658;2023-02-14T14:57:23;1.00;;;0.63;;
7479;SDS011;3781;42.272;22.658;2023-02-14T15:00:03;4.70;;;2.30;;
7479;SDS011;3781;42.272;22.658;2023-02-14T15:02:33;2.17;;;2.07;;
7479;SDS011;3781;42.272;22.658;2023-02-14T15:05:10;2.20;;;0.50;;
7479;SDS011;3781;42.272;22.658;2023-02-14T15:07:42;2.23;;;1.90;;
7479;SDS011;3781;42.272;22.658;2023-02-14T15:10:19;2.00;;;1.60;;
7479;SDS011;3781;42.272;22.658;2023-02-14T15:12:54;0.83;;;0.83;;
7479;SDS011;3781;42.272;22.658;2023-02-14T15:15:45;1.43;;;0.27;;
7479;SDS011;3781;42.272;22.658;2023-02-14T15:18:14;1.80;;;1.70;;
7479;SDS011;3781;42.272;22.658;2023-02-14T15:20:46;1.27;;;0.93;;
7479;SDS011;3781;42.272;22.658;2023-02-14T15:23:15;1.27;;;0.20;;
7479;SDS011;3781;42.272;22.658;2023-02-14T15:25:45;1.30;;;1.30;;
7479;SDS011;3781;42.272;22.658;2023-02-14T15:28:13;0.57;;;0.57;;
7479;SDS011;3781;42.272;22.658;2023-02-14T15:30:55;0.30;;;0.30;;
7479;SDS011;3781;42.272;22.658;2023-02-14T15:33:23;4.37;;;1.23;;
7479;SDS011;3781;42.272;22.658;2023-02-14T15:35:51;1.33;;;1.33;;
7479;SDS011;3781;42.272;22.658;2023-02-14T15:40:01;1.27;;;0.73;;
7479;SDS011;3781;42.272;22.658;2023-02-14T15:41:10;0.30;;;0.30;;
7479;SDS011;3781;42.272;22.658;2023-02-14T15:43:59;1.30;;;0.83;;
7479;SDS011;3781;42.272;22.658;2023-02-14T15:46:42;2.93;;;0.47;;
7479;SDS011;3781;42.272;22.658;2023-02-14T15:49:22;7.93;;;2.20;;
7479;SDS011;3781;42.272;22.658;2023-02-14T15:52:28;0.83;;;0.83;;
7479;SDS011;3781;42.272;22.658;2023-02-14T15:54:55;14.37;;;4.43;;
7479;SDS011;3781;42.272;22.658;2023-02-14T15:57:23;0.30;;;0.30;;
7479;SDS011;3781;42.272;22.658;2023-02-14T15:59:52;0.17;;;0.17;;
7479;SDS011;3781;42.272;22.658;2023-02-14T16:02:28;2.70;;;1.47;;
7479;SDS011;3781;42.272;22.658;2023-02-14T16:05:03;5.77;;;1.90;;
7479;SDS011;3781;42.272;22.658;2023-02-14T16:07:32;3.63;;;1.57;;
7479;SDS011;3781;42.272;22.658;2023-02-14T16:10:19;0.77;;;0.70;;
7479;SDS011;3781;42.272;22.658;2023-02-14T16:12:52;0.57;;;0.57;;